Prosser, Washington
Current Conditions -  °F | °C
As of 4:53 PM on Monday 26 Jan 2015 (Local Time) from KPSC Reporting Station
Haze Haze  
Wind Chill: 37°   Ceiling: 400
Heat Index: 40°   Visibility: 1mi
Dew Point: 39°   Wind: 5mph
Humidity: 97%   Direction: 60°ENE
Pressure: 30.05"   Gusts: NA
Location:  46.21°N, 119.77°W
Report Text: KPSC 270053Z 06004KT 1SM BR OVC004 04/04 A3005 RMK AO2 SLP179 T00440039 RVRNO
Loading
Personal Weather Stations






























Interactive Weather Map New forecast layout! Learn more

10-Day Weather Forecast

Advertisements
Track Severe Weather on mobile